createdAt,value
2022-12-28T00:04:58.281Z,74.83
2022-12-28T00:10:02.607Z,75.37
2022-12-28T00:15:06.226Z,74.70
2022-12-28T00:20:10.132Z,75.68
2022-12-28T00:25:14.329Z,74.77
2022-12-28T00:30:17.398Z,74.53
2022-12-28T00:35:20.324Z,74.35
2022-12-28T00:40:24.585Z,74.30
2022-12-28T00:45:27.588Z,73.71
2022-12-28T00:50:30.520Z,73.49
2022-12-28T00:55:35.398Z,73.21
2022-12-28T01:00:38.961Z,73.60
2022-12-28T01:05:41.967Z,74.14
2022-12-28T01:10:46.225Z,73.54
2022-12-28T01:15:49.146Z,73.54
2022-12-28T01:20:52.078Z,73.82
2022-12-28T01:25:56.351Z,73.30
2022-12-28T01:31:04.555Z,73.29
2022-12-28T01:36:08.808Z,73.12
2022-12-28T01:41:17.645Z,74.13
2022-12-28T01:46:24.469Z,73.16
2022-12-28T01:51:31.357Z,73.32
2022-12-28T01:56:35.703Z,74.35
2022-12-28T02:01:38.947Z,73.72
2022-12-28T02:06:41.996Z,73.97
2022-12-28T02:11:46.684Z,76.22
2022-12-28T02:16:49.701Z,76.42
2022-12-28T02:22:10.297Z,75.63
2022-12-28T02:27:24.432Z,75.95
2022-12-28T02:32:42.248Z,75.20
2022-12-28T02:37:48.627Z,72.33
2022-12-28T02:42:53.402Z,72.54
2022-12-28T02:48:15.184Z,70.97
2022-12-28T02:53:34.279Z,71.37
2022-12-28T02:59:03.046Z,70.23
2022-12-28T03:04:14.875Z,69.87
2022-12-28T03:09:22.348Z,69.35
2022-12-28T03:14:31.523Z,68.71
2022-12-28T03:19:57.346Z,68.58
2022-12-28T03:25:19.834Z,67.94
2022-12-28T03:30:41.417Z,66.99
2022-12-28T03:35:53.648Z,67.59
2022-12-28T03:41:04.068Z,67.59
2022-12-28T03:46:14.633Z,67.34
2022-12-28T03:51:25.097Z,67.58
2022-12-28T03:56:30.248Z,67.09
2022-12-28T04:01:36.893Z,67.54
2022-12-28T04:06:41.253Z,68.45
2022-12-28T04:11:44.292Z,67.80
2022-12-28T04:16:55.527Z,67.46
2022-12-28T04:21:59.825Z,67.79
2022-12-28T04:27:02.922Z,67.49
2022-12-28T04:32:06.514Z,68.13
2022-12-28T04:37:11.342Z,68.43
2022-12-28T04:42:14.296Z,68.45
2022-12-28T04:47:17.161Z,68.15
2022-12-28T04:52:22.405Z,68.66
2022-12-28T04:57:25.320Z,68.64
2022-12-28T05:02:28.276Z,68.55
2022-12-28T05:07:32.855Z,68.69
2022-12-28T05:12:35.781Z,69.37
2022-12-28T05:17:38.707Z,69.33
2022-12-28T05:22:42.915Z,68.73
2022-12-28T05:27:45.805Z,68.19
2022-12-28T05:32:48.676Z,68.54
2022-12-28T05:37:53.701Z,68.22
2022-12-28T05:42:56.714Z,68.09
2022-12-28T05:47:59.635Z,67.69
2022-12-28T05:53:03.942Z,67.56
2022-12-28T05:58:08.493Z,66.03
2022-12-28T06:03:11.481Z,65.91
2022-12-28T06:08:20.960Z,65.63
2022-12-28T06:13:25.495Z,66.35
2022-12-28T06:18:30.110Z,66.40
2022-12-28T06:23:34.994Z,66.76
2022-12-28T06:28:38.758Z,65.99
2022-12-28T06:33:42.530Z,65.52
2022-12-28T06:38:47.532Z,66.10
2022-12-28T06:43:51.117Z,65.77
2022-12-28T06:48:54.191Z,65.01
2022-12-28T06:53:58.575Z,65.65
2022-12-28T06:59:03.878Z,65.16
2022-12-28T07:04:08.995Z,66.12
2022-12-28T07:09:16.265Z,65.54
2022-12-28T07:14:19.346Z,65.54
2022-12-28T07:19:22.268Z,65.65
2022-12-28T07:24:26.533Z,66.59
2022-12-28T07:29:29.445Z,67.03
2022-12-28T07:34:32.351Z,66.40
2022-12-28T07:39:36.750Z,67.00
2022-12-28T07:44:45.483Z,68.10
2022-12-28T07:49:51.684Z,67.11
2022-12-28T07:54:55.954Z,67.96
2022-12-28T07:59:58.970Z,68.70
2022-12-28T08:05:01.884Z,67.89
2022-12-28T08:10:06.926Z,68.71
2022-12-28T08:15:10.912Z,68.71
2022-12-28T08:20:13.951Z,69.07
2022-12-28T08:25:18.500Z,69.66
2022-12-28T08:30:21.489Z,70.01
2022-12-28T08:35:24.403Z,69.77
2022-12-28T08:40:30.005Z,69.60
2022-12-28T08:45:33.076Z,69.70
2022-12-28T08:50:35.959Z,69.35
2022-12-28T08:55:40.167Z,69.42
2022-12-28T09:00:43.102Z,68.94
2022-12-28T09:05:47.881Z,68.51
2022-12-28T09:10:54.274Z,69.01
2022-12-28T09:15:58.480Z,68.27
2022-12-28T09:21:05.995Z,67.46
2022-12-28T09:26:12.424Z,67.85
2022-12-28T09:31:16.205Z,67.31
2022-12-28T09:36:19.396Z,67.11
2022-12-28T09:41:29.688Z,67.41
2022-12-28T09:46:34.563Z,67.75
2022-12-28T09:51:42.421Z,67.17
2022-12-28T09:56:48.914Z,67.28
2022-12-28T10:01:57.024Z,66.37
2022-12-28T10:07:01.952Z,67.19
2022-12-28T10:12:14.961Z,67.22
2022-12-28T10:17:21.201Z,66.81
2022-12-28T10:22:26.708Z,66.98
2022-12-28T10:27:32.906Z,66.91
2022-12-28T10:32:50.098Z,65.85
2022-12-28T10:38:02.501Z,65.74
2022-12-28T10:43:11.140Z,65.97
2022-12-28T10:48:18.365Z,65.27
2022-12-28T10:53:27.026Z,65.27
2022-12-28T10:58:33.519Z,65.90
2022-12-28T11:03:40.797Z,66.01
2022-12-28T11:08:46.327Z,66.11
2022-12-28T11:13:56.572Z,65.78
2022-12-28T11:18:59.537Z,66.07
2022-12-28T11:24:02.808Z,65.25
2022-12-28T11:29:07.040Z,65.48
2022-12-28T11:34:18.157Z,65.90
2022-12-28T11:39:43.928Z,66.08
2022-12-28T11:44:53.293Z,65.57
2022-12-28T11:49:56.291Z,65.46
2022-12-28T11:55:00.607Z,66.45
2022-12-28T12:00:48.883Z,66.08
2022-12-28T12:05:54.201Z,65.38
2022-12-28T12:11:22.053Z,65.78
2022-12-28T12:16:30.926Z,65.57
2022-12-28T12:21:40.518Z,65.25
2022-12-28T12:26:50.844Z,64.44
2022-12-28T12:32:01.574Z,63.76
2022-12-28T12:37:36.724Z,63.80
2022-12-28T12:42:51.414Z,64.31
2022-12-28T12:48:25.522Z,65.03
2022-12-28T12:53:48.655Z,64.71
2022-12-28T12:59:01.662Z,63.57
2022-12-28T13:04:09.231Z,63.81
2022-12-28T13:09:17.686Z,64.72
2022-12-28T13:14:22.850Z,64.31
2022-12-28T13:19:27.735Z,64.02
2022-12-28T13:24:36.055Z,64.27
2022-12-28T13:29:41.086Z,64.16
2022-12-28T13:34:50.636Z,64.01
2022-12-28T13:40:13.929Z,64.74
2022-12-28T13:45:17.938Z,64.99
2022-12-28T13:50:25.195Z,65.82
2022-12-28T13:55:34.870Z,65.55
2022-12-28T14:00:39.961Z,65.93
2022-12-28T14:05:44.807Z,65.44
2022-12-28T14:10:50.119Z,65.64
2022-12-28T14:15:55.430Z,65.84
2022-12-28T14:20:59.575Z,65.62
2022-12-28T14:26:06.476Z,65.81
2022-12-28T14:31:11.655Z,66.61
2022-12-28T14:36:21.880Z,66.21
2022-12-28T14:41:30.968Z,68.36
2022-12-28T14:46:36.135Z,66.28
2022-12-28T14:51:44.074Z,66.76
2022-12-28T14:56:52.691Z,67.20
2022-12-28T15:01:55.918Z,67.21
2022-12-28T15:06:58.926Z,68.58
2022-12-28T15:12:10.564Z,67.44
2022-12-28T15:17:14.839Z,68.07
2022-12-28T15:22:18.602Z,68.36
2022-12-28T15:27:23.013Z,68.54
2022-12-28T15:32:25.989Z,68.08
2022-12-28T15:37:28.896Z,67.59
2022-12-28T15:42:38.231Z,67.88
2022-12-28T15:47:43.584Z,68.73
2022-12-28T15:52:46.472Z,68.84
2022-12-28T15:57:50.730Z,68.28
2022-12-28T16:02:55.397Z,68.06
2022-12-28T16:07:58.487Z,68.49
2022-12-28T16:13:02.742Z,68.81
2022-12-28T16:18:05.759Z,67.91
2022-12-28T16:23:08.678Z,68.65
2022-12-28T16:28:12.909Z,68.07
2022-12-28T16:33:15.779Z,68.34
2022-12-28T16:38:20.415Z,68.40
2022-12-28T16:43:25.184Z,68.64
2022-12-28T16:48:28.052Z,68.59
2022-12-28T16:53:31.732Z,67.75
2022-12-28T16:58:35.987Z,68.22
2022-12-28T17:03:39.888Z,69.21
2022-12-28T17:08:43.147Z,68.37
2022-12-28T17:13:47.403Z,69.04
2022-12-28T17:18:50.398Z,68.91
2022-12-28T17:23:53.520Z,68.64
2022-12-28T17:28:58.189Z,69.25
2022-12-28T17:34:02.911Z,69.13
2022-12-28T17:39:05.888Z,68.67
2022-12-28T17:44:11.824Z,68.97
2022-12-28T17:49:16.591Z,68.57
2022-12-28T17:54:19.538Z,69.35
2022-12-28T17:59:23.816Z,68.96
2022-12-28T18:04:26.694Z,69.18
2022-12-28T18:09:29.649Z,70.14
2022-12-28T18:14:33.911Z,69.56
2022-12-28T18:19:37.027Z,69.77
2022-12-28T18:24:40.322Z,69.76
2022-12-28T18:29:45.285Z,70.03
2022-12-28T18:34:48.236Z,69.78
2022-12-28T18:39:51.129Z,70.01
2022-12-28T18:44:55.476Z,70.72
2022-12-28T18:49:58.373Z,70.27
2022-12-28T18:55:01.298Z,69.68
2022-12-28T19:00:08.425Z,70.25
2022-12-28T19:05:11.906Z,70.42
2022-12-28T19:10:15.940Z,70.04
2022-12-28T19:15:20.232Z,70.99
2022-12-28T19:20:23.181Z,71.37
2022-12-28T19:25:26.043Z,70.66
2022-12-28T19:30:30.281Z,70.64
2022-12-28T19:35:33.194Z,71.20
2022-12-28T19:40:36.083Z,70.78
2022-12-28T19:45:40.317Z,70.38
2022-12-28T19:50:43.315Z,70.91
2022-12-28T19:55:46.181Z,71.18
2022-12-28T20:00:50.437Z,71.14
2022-12-28T20:05:53.329Z,71.42
2022-12-28T20:10:57.085Z,70.05
2022-12-28T20:16:01.513Z,69.96
2022-12-28T20:21:19.199Z,68.78
2022-12-28T20:26:24.988Z,69.27
2022-12-28T20:31:29.907Z,68.47
2022-12-28T20:36:34.031Z,68.40
2022-12-28T20:41:54.294Z,67.03
2022-12-28T20:46:59.086Z,67.77
2022-12-28T20:52:01.988Z,66.64
2022-12-28T20:57:04.868Z,66.20
2022-12-28T21:02:10.816Z,65.76
2022-12-28T21:07:13.766Z,65.97
2022-12-28T21:12:16.648Z,65.36
2022-12-28T21:17:20.901Z,65.83
2022-12-28T21:22:23.789Z,65.77
2022-12-28T21:27:26.769Z,65.18
2022-12-28T21:32:31.088Z,65.23
2022-12-28T21:37:36.679Z,65.21
2022-12-28T21:42:40.124Z,64.76
2022-12-28T21:47:44.391Z,64.19
2022-12-28T21:52:47.304Z,65.16
2022-12-28T21:57:51.063Z,64.94
2022-12-28T22:03:13.320Z,64.96
2022-12-28T22:08:33.480Z,65.42
2022-12-28T22:13:36.887Z,64.56
2022-12-28T22:24:04.008Z,64.07
2022-12-28T22:29:06.900Z,64.21
2022-12-28T22:34:11.141Z,63.98
2022-12-28T22:39:14.137Z,64.68
2022-12-28T22:44:17.124Z,63.43
2022-12-28T22:49:21.373Z,62.83
2022-12-28T22:54:24.523Z,63.75
2022-12-28T22:59:27.517Z,63.88
2022-12-28T23:04:31.865Z,63.37
2022-12-28T23:09:34.891Z,63.54
2022-12-28T23:14:55.035Z,63.31
2022-12-28T23:20:16.800Z,63.80
2022-12-28T23:25:39.763Z,63.31
2022-12-28T23:30:46.448Z,63.75
2022-12-28T23:35:50.771Z,63.75
2022-12-28T23:41:13.786Z,63.35
2022-12-28T23:46:16.939Z,63.83
2022-12-28T23:51:21.261Z,63.10
2022-12-28T23:56:24.964Z,63.65
